Tampa, Florida
Traffic Map
Current Weather Conditions
Tampa, Florida
Few Clouds
Few Clouds
67°
Feels Like: 67°
Wind Chill: 67° Ceiling: Unl
Heat Index: 67° Visibility: 7mi
Dew Point: 64° Wind: 6mph
Humidity: 90% Direction: 170° (S)
Pressure: 30.21in Gusts: 0mph
Raw Report DataKTPA 181153Z 17005KT 7SM FEW140 19/18 A3021 RMK AO2 SLP231 T01940178 10206 20172 53002
Traffic Incident Summary
Active as of:
Severity:
Category:
InformationThere was an issue retrieving the traffic information for this location. Please try a different location or try again shortly.
Advertisements